Ludlow, Illinois
Current Conditions -  °F | °C
As of 1:10 PM on Saturday 20 Dec 2014 (Local Time) from KTIP Reporting Station
Overcast Overcast  
Wind Chill: 30°   Ceiling: 6000
Heat Index: 35°   Visibility: 10mi
Dew Point: 28°   Wind: 6mph
Humidity: 77%   Direction: 180°S
Pressure: 30.25"   Gusts: NA
Location:  40.39°N, 88.13°W
Report Text: KTIP 201910Z AUTO 18005KT 10SM SCT016 OVC060 02/M02 A3025 RMK AO2 T00161021
Loading
Personal Weather Stations






























Interactive Weather Map New forecast layout! Learn more

10-Day Weather Forecast

Advertisements
Track Severe Weather on mobile